Time;durP1;ratioP1;P1;durP2;ratioP2;P2;SDS_P1;SDS_P2;PMS_P1;PMS_P2;Temp;Humidity;BMP_temperature;BMP_pressure;BME280_temperature;BME280_humidity;BME280_pressure;Samples;Min_cycle;Max_cycle;Signal;HPM_P1;HPM_P2
2022/01/12 00:00:40;;;;;;;11.55;5.50;;;1.40;99.90;;;;;;5031077;28;20034;-83
2022/01/12 00:03:06;;;;;;;10.35;4.50;;;1.40;99.90;;;;;;5031648;28;20037;-83
2022/01/12 00:05:35;;;;;;;11.02;5.38;;;1.40;99.90;;;;;;5029422;28;20029;-83
2022/01/12 00:08:04;;;;;;;14.10;5.50;;;1.40;99.90;;;;;;5030893;28;20209;-83
2022/01/12 00:10:30;;;;;;;11.52;5.85;;;1.40;99.90;;;;;;5033846;28;20042;-83
2022/01/12 00:13:01;;;;;;;10.43;5.05;;;1.40;99.90;;;;;;5034784;28;20045;-83
2022/01/12 00:15:27;;;;;;;11.75;5.57;;;1.40;99.90;;;;;;5017972;28;20038;-83
2022/01/12 00:17:53;;;;;;;10.95;5.25;;;1.40;99.90;;;;;;5033555;28;20546;-83
2022/01/12 00:20:19;;;;;;;13.63;5.68;;;1.40;99.90;;;;;;5034872;28;20142;-83
2022/01/12 00:22:48;;;;;;;13.60;6.72;;;1.40;99.90;;;;;;5034967;28;20113;-83
2022/01/12 00:33:47;;;;;;;25.23;6.85;;;1.30;99.90;;;;;;5034561;28;20105;-83
2022/01/12 00:36:21;;;;;;;15.93;7.28;;;1.30;99.90;;;;;;5033110;28;20030;-83
2022/01/12 00:38:47;;;;;;;15.52;6.60;;;1.30;99.90;;;;;;5034069;28;20026;-83
2022/01/12 00:41:17;;;;;;;16.70;7.30;;;1.30;99.90;;;;;;5034994;28;20026;-83
2022/01/12 00:43:47;;;;;;;16.55;6.45;;;1.30;99.90;;;;;;5034639;28;20026;-83
2022/01/12 03:07:52;;;;;;;12.73;5.72;;;-0.70;99.90;;;;;;5033296;28;20029;-83
2022/01/12 03:10:18;;;;;;;12.23;4.20;;;-0.70;99.90;;;;;;5031784;28;20105;-82
2022/01/12 03:12:45;;;;;;;11.75;4.90;;;-0.70;99.90;;;;;;5032532;28;20045;-82
2022/01/12 03:15:11;;;;;;;12.10;4.93;;;-0.70;99.90;;;;;;5032272;28;20026;-82
2022/01/12 03:17:37;;;;;;;13.57;6.13;;;-0.70;99.90;;;;;;5032163;28;20030;-82
2022/01/12 03:20:05;;;;;;;14.73;4.72;;;-0.70;99.90;;;;;;5031594;28;20030;-82
2022/01/12 03:22:31;;;;;;;10.98;5.50;;;-0.80;99.90;;;;;;5031780;28;20018;-82
2022/01/12 03:24:57;;;;;;;11.13;4.78;;;-0.80;99.90;;;;;;5014854;28;20026;-82
2022/01/12 03:27:25;;;;;;;11.27;4.43;;;-0.80;99.90;;;;;;5029976;28;20240;-82
2022/01/12 03:29:55;;;;;;;15.90;5.57;;;-0.90;99.90;;;;;;5014665;28;20033;-82
2022/01/12 03:32:28;;;;;;;9.73;4.75;;;-0.90;99.90;;;;;;5031195;28;20049;-83
2022/01/12 03:35:05;;;;;;;11.10;5.05;;;-0.90;99.90;;;;;;5030696;28;20077;-83
2022/01/12 03:37:54;;;;;;;12.77;4.95;;;-0.90;99.90;;;;;;5029654;28;20030;-83
2022/01/12 03:40:21;;;;;;;10.32;4.25;;;-1.00;99.90;;;;;;5030053;28;20034;-83
2022/01/12 03:42:47;;;;;;;11.30;5.43;;;-0.90;99.90;;;;;;5028511;28;20034;-83
2022/01/12 03:45:16;;;;;;;10.32;5.25;;;-1.00;99.90;;;;;;5033972;28;20021;-82
2022/01/12 03:47:41;;;;;;;12.18;5.07;;;-0.90;99.90;;;;;;5033467;28;20030;-82
2022/01/12 03:50:07;;;;;;;14.77;5.00;;;-0.90;99.90;;;;;;5033513;28;20518;-83
2022/01/12 03:52:33;;;;;;;13.25;4.88;;;-1.00;99.90;;;;;;5032729;28;20022;-83
2022/01/12 03:54:59;;;;;;;13.73;5.15;;;-1.00;99.90;;;;;;5033979;28;20030;-82
2022/01/12 03:57:25;;;;;;;11.65;5.15;;;-0.90;99.90;;;;;;5032032;28;20089;-82
2022/01/12 03:59:51;;;;;;;11.27;5.45;;;-1.00;99.90;;;;;;5033421;28;20026;-83
2022/01/12 04:02:16;;;;;;;13.63;5.63;;;-1.00;99.90;;;;;;5032850;28;20049;-83
2022/01/12 04:05:09;;;;;;;12.43;4.80;;;-1.00;99.90;;;;;;5033228;28;20048;-83
2022/01/12 04:10:34;;;;;;;12.45;5.13;;;-1.00;99.90;;;;;;5000127;28;20049;-83
2022/01/12 04:13:00;;;;;;;13.43;6.30;;;-1.10;99.90;;;;;;5011009;28;20042;-83
2022/01/12 04:15:26;;;;;;;11.98;5.22;;;-1.10;99.90;;;;;;5021169;28;20137;-82
2022/01/12 04:17:52;;;;;;;10.00;5.10;;;-1.10;99.90;;;;;;5032547;28;20030;-83
2022/01/12 04:20:18;;;;;;;15.63;5.75;;;-1.20;99.90;;;;;;5015906;28;20013;-83
2022/01/12 04:25:35;;;;;;;15.27;6.35;;;-1.20;99.90;;;;;;5034370;28;20105;-83
2022/01/12 04:28:00;;;;;;;13.05;5.35;;;-1.20;99.90;;;;;;5017572;28;20044;-83
2022/01/12 04:30:29;;;;;;;12.38;4.78;;;-1.20;99.90;;;;;;5033464;28;20053;-82
2022/01/12 04:32:55;;;;;;;16.15;5.85;;;-1.30;99.90;;;;;;5032504;28;20062;-83
2022/01/12 04:35:24;;;;;;;13.93;5.40;;;-1.20;99.90;;;;;;5110565;23;20038;-81
2022/01/12 04:37:51;;;;;;;10.80;4.78;;;-1.20;99.90;;;;;;5028348;28;20048;-81
2022/01/12 04:40:16;;;;;;;17.58;5.60;;;-1.30;99.90;;;;;;5028190;28;20069;-81
2022/01/12 04:42:43;;;;;;;13.63;5.28;;;-1.30;99.90;;;;;;5049969;28;20430;-81
2022/01/12 04:45:20;;;;;;;15.70;5.85;;;-1.30;99.90;;;;;;5048532;28;20022;-81
2022/01/12 04:50:25;;;;;;;11.05;4.78;;;-1.30;99.90;;;;;;5032417;28;20107;-80
2022/01/12 04:52:51;;;;;;;13.35;5.38;;;-1.30;99.90;;;;;;5007988;28;20033;-81
2022/01/12 04:55:16;;;;;;;14.77;5.35;;;-1.30;99.90;;;;;;5031055;28;20031;-81
2022/01/12 04:57:42;;;;;;;16.10;6.85;;;-1.30;99.90;;;;;;5015265;28;20029;-81
2022/01/12 05:00:16;;;;;;;10.93;5.20;;;-1.40;99.90;;;;;;5039490;28;20030;-80
2022/01/12 05:13:47;;;;;;;13.38;5.45;;;-1.40;99.90;;;;;;5013469;28;20096;-81
2022/01/12 05:16:13;;;;;;;;;;;-1.30;99.90;;;;;;5020339;28;20038;-81
2022/01/12 05:18:41;;;;;;;13.07;5.55;;;-1.30;99.90;;;;;;5030765;28;20378;-80
2022/01/12 05:21:08;;;;;;;13.50;5.00;;;-1.30;99.90;;;;;;5028416;28;20084;-81
2022/01/12 05:23:34;;;;;;;18.25;5.60;;;-1.30;99.90;;;;;;5029657;28;20148;-81
2022/01/12 05:26:00;;;;;;;15.55;6.60;;;-1.30;99.90;;;;;;5037200;28;20032;-81
2022/01/12 05:28:27;;;;;;;15.88;6.40;;;-1.30;99.90;;;;;;5038347;28;20488;-81
2022/01/12 05:30:54;;;;;;;14.57;6.03;;;-1.30;99.90;;;;;;5029491;28;20029;-80
2022/01/12 05:33:23;;;;;;;14.98;6.22;;;-1.30;99.90;;;;;;5043058;28;20448;-80
2022/01/12 05:35:49;;;;;;;14.27;5.25;;;-1.30;99.90;;;;;;5020120;28;20037;-80
2022/01/12 05:38:16;;;;;;;16.30;5.32;;;-1.30;99.90;;;;;;5030593;28;20038;-80
2022/01/12 05:40:47;;;;;;;12.23;5.38;;;-1.30;99.90;;;;;;5014798;28;20034;-80
2022/01/12 05:43:14;;;;;;;14.20;5.30;;;-1.30;99.90;;;;;;5014470;28;20033;-81
2022/01/12 05:45:44;;;;;;;12.95;5.40;;;-1.30;99.90;;;;;;5030492;28;20064;-81
2022/01/12 05:50:37;;;;;;;11.63;5.03;;;-1.30;99.90;;;;;;5063867;28;20030;-81
2022/01/12 05:53:03;;;;;;;12.05;5.75;;;-1.30;99.90;;;;;;5011702;28;20037;-81
2022/01/12 05:55:29;;;;;;;16.67;5.20;;;-1.30;99.90;;;;;;5029490;28;20045;-80
2022/01/12 05:57:54;;;;;;;13.05;4.93;;;-1.30;99.90;;;;;;5037252;28;20034;-80
2022/01/12 06:00:24;;;;;;;13.80;6.03;;;-1.30;99.90;;;;;;5062020;28;20489;-81
2022/01/12 06:02:50;;;;;;;11.80;5.10;;;-1.40;99.90;;;;;;5026880;28;20033;-80
2022/01/12 06:05:19;;;;;;;19.65;6.20;;;-1.40;99.90;;;;;;5032956;28;20099;-81
2022/01/12 06:07:47;;;;;;;16.65;7.10;;;-1.40;99.90;;;;;;5029760;28;20083;-81
2022/01/12 06:10:13;;;;;;;17.25;6.72;;;-1.50;99.90;;;;;;5028395;28;20117;-81
2022/01/12 06:12:40;;;;;;;16.30;6.35;;;-1.50;99.90;;;;;;5045393;28;20507;-81
2022/01/12 06:15:06;;;;;;;15.45;5.95;;;-1.50;99.90;;;;;;5027238;28;20037;-80
2022/01/12 06:17:32;;;;;;;17.35;6.07;;;-1.60;99.90;;;;;;5030965;28;20087;-81
2022/01/12 06:19:58;;;;;;;15.43;6.45;;;-1.60;99.90;;;;;;5031412;28;20034;-81
2022/01/12 06:22:24;;;;;;;14.45;6.10;;;-1.60;99.90;;;;;;5033785;28;20038;-81
2022/01/12 06:24:50;;;;;;;13.27;6.15;;;-1.60;99.90;;;;;;5044926;28;20055;-81
2022/01/12 06:27:18;;;;;;;15.25;6.45;;;-1.60;99.90;;;;;;5047428;28;20021;-81
2022/01/12 06:29:51;;;;;;;14.07;5.10;;;-1.60;99.90;;;;;;5045525;28;20442;-81
2022/01/12 06:32:17;;;;;;;15.93;5.78;;;-1.70;99.90;;;;;;5063228;28;20060;-81
2022/01/12 06:34:46;;;;;;;13.50;5.97;;;-1.70;99.90;;;;;;5046768;28;20068;-81
2022/01/12 06:37:11;;;;;;;17.10;6.38;;;-1.70;99.90;;;;;;5015625;28;20060;-80
2022/01/12 06:39:37;;;;;;;13.63;5.32;;;-1.70;99.90;;;;;;5029388;28;20041;-81
2022/01/12 06:42:03;;;;;;;13.90;6.13;;;-1.80;99.90;;;;;;5013841;28;20033;-81
2022/01/12 06:44:29;;;;;;;14.60;5.80;;;-1.80;99.90;;;;;;5012759;28;20076;-81
2022/01/12 06:47:03;;;;;;;13.38;5.88;;;-1.80;99.90;;;;;;5046564;28;20119;-80
2022/01/12 06:49:31;;;;;;;15.57;6.00;;;-1.80;99.90;;;;;;5014790;28;20460;-81
2022/01/12 06:51:59;;;;;;;14.80;6.00;;;-1.90;99.90;;;;;;5014239;28;20068;-81
2022/01/12 06:54:26;;;;;;;16.70;5.95;;;-1.90;99.90;;;;;;5045485;28;20025;-81
2022/01/12 06:56:53;;;;;;;14.60;5.60;;;-1.90;99.90;;;;;;5046402;28;20037;-81
2022/01/12 06:59:18;;;;;;;16.10;6.15;;;-1.90;99.90;;;;;;5030493;28;20408;-81
2022/01/12 07:01:44;;;;;;;15.93;6.00;;;-1.90;99.90;;;;;;5013714;28;20036;-81
2022/01/12 07:04:11;;;;;;;19.00;6.38;;;-1.90;99.90;;;;;;4997438;28;20022;-81
2022/01/12 07:06:37;;;;;;;19.67;7.03;;;-1.90;99.90;;;;;;5030367;28;20074;-81
2022/01/12 07:09:06;;;;;;;18.95;6.10;;;-1.90;99.90;;;;;;5013931;28;20116;-81
2022/01/12 07:11:31;;;;;;;17.85;6.82;;;-1.90;99.90;;;;;;5030101;28;20081;-80
2022/01/12 07:13:58;;;;;;;13.48;6.57;;;-1.90;99.90;;;;;;5029975;28;20451;-81
2022/01/12 07:16:24;;;;;;;17.77;6.75;;;-1.90;99.90;;;;;;5013731;28;20593;-80
2022/01/12 07:18:49;;;;;;;18.80;6.82;;;-1.90;99.90;;;;;;5029880;28;20156;-81
2022/01/12 07:21:15;;;;;;;21.98;8.68;;;-1.80;99.90;;;;;;5029959;28;20041;-81
2022/01/12 07:23:41;;;;;;;17.42;8.25;;;-1.80;99.90;;;;;;5013219;28;20037;-81
2022/01/12 07:26:08;;;;;;;20.60;8.18;;;-1.80;99.90;;;;;;5013610;28;20026;-80
2022/01/12 07:28:34;;;;;;;20.38;7.35;;;-1.80;99.90;;;;;;5013488;28;20034;-81
2022/01/12 07:31:00;;;;;;;18.00;7.65;;;-1.80;99.90;;;;;;5029996;28;20021;-81
2022/01/12 07:33:25;;;;;;;20.88;8.65;;;-1.70;99.90;;;;;;4997597;28;20036;-81
2022/01/12 07:35:52;;;;;;;18.63;7.65;;;-1.80;99.90;;;;;;4996840;28;20084;-81
2022/01/12 07:38:18;;;;;;;23.70;9.00;;;-1.80;99.90;;;;;;5013896;28;20025;-81
2022/01/12 07:40:44;;;;;;;21.77;8.10;;;-1.80;99.90;;;;;;4997327;28;20128;-81
2022/01/12 07:43:10;;;;;;;18.67;7.50;;;-1.80;99.90;;;;;;5013594;28;20132;-81
2022/01/12 07:45:36;;;;;;;16.48;7.30;;;-1.90;99.90;;;;;;5013639;28;20088;-81
2022/01/12 07:48:03;;;;;;;16.42;6.22;;;-1.90;99.90;;;;;;4997053;28;20583;-81
2022/01/12 07:50:30;;;;;;;15.63;6.85;;;-1.90;99.90;;;;;;5030925;28;20101;-81
2022/01/12 07:52:56;;;;;;;14.45;6.65;;;-1.90;99.90;;;;;;4998792;28;20449;-81
2022/01/12 07:55:22;;;;;;;14.82;6.72;;;-1.90;99.90;;;;;;4997873;28;20057;-81
2022/01/12 07:57:49;;;;;;;20.00;7.05;;;-1.80;99.90;;;;;;5030442;28;20029;-81
2022/01/12 08:00:16;;;;;;;26.60;7.57;;;-1.90;99.90;;;;;;5014584;28;20412;-81
2022/01/12 08:02:42;;;;;;;20.98;8.00;;;-1.80;99.90;;;;;;5030436;28;20121;-81
2022/01/12 08:05:08;;;;;;;24.42;8.93;;;-1.80;99.90;;;;;;5030549;28;20507;-81
2022/01/12 08:07:36;;;;;;;16.30;7.68;;;-1.80;99.90;;;;;;5013856;28;20034;-81
2022/01/12 08:10:04;;;;;;;20.45;7.65;;;-1.80;99.90;;;;;;5030741;28;20023;-81
2022/01/12 08:12:30;;;;;;;19.48;6.80;;;-1.80;99.90;;;;;;5030796;28;20476;-81
2022/01/12 08:14:56;;;;;;;13.95;6.55;;;-1.80;99.90;;;;;;4997721;28;20040;-81
2022/01/12 08:17:21;;;;;;;16.17;6.68;;;-1.70;99.90;;;;;;5013815;28;20039;-81
2022/01/12 08:19:48;;;;;;;14.68;7.10;;;-1.70;99.90;;;;;;5030736;28;20094;-81
2022/01/12 08:22:14;;;;;;;18.17;7.10;;;-1.70;99.90;;;;;;4997784;28;20060;-81
2022/01/12 08:24:40;;;;;;;16.10;6.40;;;-1.60;99.90;;;;;;4997565;28;20488;-81
2022/01/12 08:27:07;;;;;;;15.65;6.65;;;-1.50;99.90;;;;;;5014104;28;20037;-81
2022/01/12 08:29:33;;;;;;;16.10;6.68;;;-1.50;99.90;;;;;;5031864;28;20369;-81
2022/01/12 08:31:59;;;;;;;16.15;6.65;;;-1.40;99.90;;;;;;5018142;28;20048;-81
2022/01/12 08:34:27;;;;;;;17.65;6.55;;;-1.40;99.90;;;;;;5017771;28;20131;-81
2022/01/12 08:36:53;;;;;;;16.23;5.88;;;-1.30;99.90;;;;;;5018078;28;20032;-81
2022/01/12 08:39:19;;;;;;;15.00;5.82;;;-1.30;99.90;;;;;;5018447;28;20056;-81
2022/01/12 08:41:44;;;;;;;20.25;7.00;;;-1.20;99.90;;;;;;5017033;28;20076;-81
2022/01/12 08:44:10;;;;;;;19.10;8.05;;;-1.20;99.90;;;;;;5016393;28;20034;-81
2022/01/12 08:46:38;;;;;;;17.35;7.45;;;-1.10;99.90;;;;;;4999916;28;20056;-81
2022/01/12 08:49:04;;;;;;;19.80;7.65;;;-1.10;99.90;;;;;;5016718;28;20053;-81
2022/01/12 08:51:30;;;;;;;13.00;6.22;;;-1.00;99.90;;;;;;5032721;28;20031;-81
2022/01/12 08:53:56;;;;;;;14.93;6.20;;;-1.00;99.90;;;;;;4999793;28;20025;-81
2022/01/12 08:56:22;;;;;;;18.20;6.65;;;-0.90;99.90;;;;;;5033962;28;20479;-81
2022/01/12 08:58:51;;;;;;;13.25;6.53;;;-0.80;99.90;;;;;;5020632;28;20025;-81
2022/01/12 09:01:16;;;;;;;16.27;6.50;;;-0.80;99.90;;;;;;5036380;28;20064;-81
2022/01/12 09:03:42;;;;;;;12.88;6.60;;;-0.70;99.90;;;;;;5019657;28;20060;-81
2022/01/12 09:06:08;;;;;;;11.70;5.93;;;-0.60;99.90;;;;;;5035827;28;20118;-81
2022/01/12 09:08:37;;;;;;;14.73;6.10;;;-0.60;99.90;;;;;;5019818;28;20061;-81
2022/01/12 09:11:03;;;;;;;9.68;4.97;;;-0.60;99.90;;;;;;5018075;28;20029;-81
2022/01/12 09:13:29;;;;;;;10.55;5.47;;;-0.50;99.90;;;;;;5031994;28;20257;-81
2022/01/12 09:15:55;;;;;;;14.00;5.60;;;-0.50;99.90;;;;;;5015147;28;20037;-81
2022/01/12 09:18:21;;;;;;;13.65;5.40;;;-0.50;99.90;;;;;;5031774;28;20124;-81
2022/01/12 09:20:49;;;;;;;15.35;5.68;;;-0.40;99.90;;;;;;5015250;28;20072;-82
2022/01/12 09:23:15;;;;;;;12.55;5.68;;;-0.30;99.90;;;;;;5015662;28;20175;-81
2022/01/12 09:25:41;;;;;;;21.20;8.23;;;-0.30;99.90;;;;;;5014482;28;20040;-81
2022/01/12 09:28:08;;;;;;;20.15;8.50;;;-0.20;99.90;;;;;;5036762;28;20050;-82
2022/01/12 09:30:34;;;;;;;22.23;8.13;;;-0.20;99.90;;;;;;5033180;28;20034;-81
2022/01/12 09:32:59;;;;;;;19.23;7.00;;;-0.20;99.90;;;;;;5030953;28;20102;-81
2022/01/12 09:35:26;;;;;;;14.00;7.07;;;-0.10;99.90;;;;;;5024863;28;20037;-82
2022/01/12 09:37:52;;;;;;;17.02;6.50;;;0.00;99.90;;;;;;5030097;28;20029;-81
2022/01/12 09:40:18;;;;;;;13.23;6.05;;;0.00;99.90;;;;;;5015013;28;20028;-81
2022/01/12 09:42:48;;;;;;;15.60;6.57;;;0.10;99.90;;;;;;5044856;28;20386;-82
2022/01/12 09:45:17;;;;;;;17.02;6.63;;;0.10;99.90;;;;;;5047422;28;20548;-82
2022/01/12 09:47:49;;;;;;;17.10;6.10;;;0.20;99.90;;;;;;5005365;28;20590;-82
2022/01/12 09:50:18;;;;;;;14.35;6.38;;;0.20;99.90;;;;;;5000044;28;20091;-81
2022/01/12 09:52:44;;;;;;;16.08;6.53;;;0.30;99.90;;;;;;5009173;28;20036;-81
2022/01/12 09:55:10;;;;;;;16.48;7.25;;;0.30;99.90;;;;;;5058075;28;20038;-81
2022/01/12 09:57:36;;;;;;;17.75;7.25;;;0.40;99.90;;;;;;5014299;28;20140;-81
2022/01/12 10:00:05;;;;;;;15.60;7.10;;;0.40;99.90;;;;;;5046342;28;20137;-81
2022/01/12 10:02:30;;;;;;;13.65;6.15;;;0.50;99.90;;;;;;5036938;28;20104;-81
2022/01/12 10:05:00;;;;;;;15.65;7.28;;;0.50;99.90;;;;;;4998504;28;20040;-80
2022/01/12 10:07:27;;;;;;;14.70;6.95;;;0.60;99.90;;;;;;5031811;28;20045;-81
2022/01/12 10:09:59;;;;;;;16.25;6.65;;;0.60;99.90;;;;;;5014889;28;20644;-81
2022/01/12 10:12:27;;;;;;;14.38;6.75;;;0.70;99.90;;;;;;5018773;28;20029;-81
2022/01/12 10:14:55;;;;;;;14.35;6.60;;;0.70;99.90;;;;;;5014566;28;20030;-80
2022/01/12 10:17:59;;;;;;;17.73;7.53;;;0.80;99.90;;;;;;5013297;28;20052;-81
2022/01/12 10:20:24;;;;;;;16.55;6.35;;;0.80;99.90;;;;;;5014780;28;20072;-81
2022/01/12 10:23:10;;;;;;;13.80;6.63;;;0.80;99.90;;;;;;5005310;28;20029;-81
2022/01/12 10:25:37;;;;;;;16.73;6.03;;;0.90;99.90;;;;;;5030969;28;20033;-81
2022/01/12 10:28:15;;;;;;;17.27;6.40;;;0.90;99.90;;;;;;5012065;28;20100;-81
2022/01/12 10:30:57;;;;;;;13.30;6.00;;;1.00;99.90;;;;;;5035263;28;20075;-81
2022/01/12 10:33:29;;;;;;;11.38;5.47;;;1.10;99.90;;;;;;5024025;28;20140;-81
2022/01/12 10:36:01;;;;;;;10.30;5.15;;;1.10;99.90;;;;;;5014558;28;20126;-80
2022/01/12 10:38:28;;;;;;;15.05;6.43;;;1.20;99.90;;;;;;5124145;22;20132;-82
2022/01/12 10:40:56;;;;;;;12.80;5.97;;;1.30;99.90;;;;;;5025699;28;20451;-83
2022/01/12 10:43:33;;;;;;;13.00;6.30;;;1.30;99.90;;;;;;4993675;28;20496;-83
2022/01/12 10:46:10;;;;;;;13.35;6.30;;;1.30;99.90;;;;;;4978600;28;20595;-83
2022/01/12 10:48:49;;;;;;;14.45;5.82;;;1.40;99.90;;;;;;4984390;28;20034;-82
2022/01/12 10:51:26;;;;;;;15.82;6.00;;;1.40;99.90;;;;;;5010237;28;20041;-83
2022/01/12 10:53:58;;;;;;;12.75;5.50;;;1.50;99.90;;;;;;4993871;28;20030;-83
2022/01/12 10:56:24;;;;;;;14.70;5.97;;;1.50;99.90;;;;;;4994496;28;20053;-83
2022/01/12 10:58:52;;;;;;;10.65;5.43;;;1.50;99.90;;;;;;5010112;28;20435;-83
2022/01/12 11:01:20;;;;;;;11.48;5.38;;;1.50;99.90;;;;;;4994281;28;20056;-83
2022/01/12 11:03:47;;;;;;;10.32;5.88;;;1.50;99.90;;;;;;5009997;28;20057;-84
2022/01/12 11:06:13;;;;;;;9.63;5.65;;;1.50;99.90;;;;;;5010102;28;20041;-84
2022/01/12 11:08:41;;;;;;;11.95;5.38;;;1.60;99.90;;;;;;4994034;28;20030;-83
2022/01/12 11:11:08;;;;;;;10.02;5.05;;;1.60;99.90;;;;;;4993703;28;20084;-83
2022/01/12 11:13:35;;;;;;;8.43;4.45;;;1.60;99.90;;;;;;4993853;28;20033;-84
2022/01/12 11:16:01;;;;;;;12.75;4.90;;;1.60;99.90;;;;;;4993905;28;20091;-84
2022/01/12 11:18:31;;;;;;;10.27;4.88;;;1.70;99.90;;;;;;4993612;28;20034;-83
2022/01/12 11:21:28;;;;;;;14.40;5.75;;;1.70;99.90;;;;;;4994271;28;20037;-84
2022/01/12 11:23:58;;;;;;;11.85;4.57;;;1.80;99.90;;;;;;5004222;28;20038;-84
2022/01/12 11:26:30;;;;;;;7.43;4.47;;;1.80;99.90;;;;;;4993932;28;20519;-83
2022/01/12 11:28:59;;;;;;;11.13;5.38;;;1.80;99.90;;;;;;4993365;28;20034;-84
2022/01/12 11:31:27;;;;;;;10.60;5.30;;;1.80;99.90;;;;;;4993117;28;20042;-84
2022/01/12 11:33:53;;;;;;;11.73;6.03;;;1.90;99.90;;;;;;5011558;28;20033;-83
2022/01/12 11:36:26;;;;;;;16.92;5.70;;;1.90;99.90;;;;;;5011029;28;20036;-83
2022/01/12 11:39:09;;;;;;;12.57;6.32;;;1.90;99.90;;;;;;4950617;28;1111331;-84
2022/01/12 11:41:41;;;;;;;10.98;4.93;;;1.90;99.90;;;;;;5024304;28;20030;-84
2022/01/12 11:44:22;;;;;;;10.93;4.93;;;2.00;99.90;;;;;;4992129;28;20030;-83
2022/01/12 11:46:55;;;;;;;10.00;4.90;;;2.00;99.90;;;;;;5005896;28;20391;-84
2022/01/12 11:49:28;;;;;;;13.18;5.43;;;2.10;99.90;;;;;;5011790;28;20026;-83
2022/01/12 11:51:59;;;;;;;8.38;4.95;;;2.10;99.90;;;;;;4996689;28;20030;-84
2022/01/12 11:54:39;;;;;;;9.88;5.25;;;2.10;99.90;;;;;;4995511;28;20030;-84
2022/01/12 11:57:07;;;;;;;12.90;5.75;;;2.10;99.90;;;;;;4996754;28;20045;-84
2022/01/12 11:59:56;;;;;;;12.93;5.90;;;2.10;99.90;;;;;;5012441;28;20034;-84
2022/01/12 12:02:44;;;;;;;15.98;6.20;;;2.10;99.90;;;;;;5012666;28;20488;-84
2022/01/12 12:05:11;;;;;;;10.98;5.72;;;2.10;99.90;;;;;;4998869;28;20599;-85
2022/01/12 12:07:46;;;;;;;13.82;5.65;;;2.10;99.90;;;;;;5016694;28;20168;-83
2022/01/12 12:10:15;;;;;;;11.88;5.57;;;2.20;99.90;;;;;;5017088;28;20151;-85
2022/01/12 12:12:41;;;;;;;18.70;6.88;;;2.20;99.90;;;;;;4985087;28;20041;-84
2022/01/12 12:15:08;;;;;;;14.80;6.10;;;2.30;99.90;;;;;;5002305;28;20037;-84
2022/01/12 12:17:37;;;;;;;13.93;6.22;;;2.20;99.90;;;;;;5001001;28;20053;-84
2022/01/12 12:20:15;;;;;;;13.63;6.40;;;2.30;99.90;;;;;;5001204;28;20151;-84
2022/01/12 12:22:44;;;;;;;11.80;5.70;;;2.30;99.90;;;;;;5002132;28;20037;-84
2022/01/12 12:25:14;;;;;;;10.35;5.53;;;2.30;99.90;;;;;;5001127;28;20033;-85
2022/01/12 12:27:42;;;;;;;;;;;2.40;99.90;;;;;;5002540;28;20030;-84
2022/01/12 12:30:14;;;;;;;10.88;4.63;;;2.40;99.90;;;;;;5019187;28;19912;-84
2022/01/12 12:32:46;;;;;;;14.15;5.85;;;2.40;99.90;;;;;;5023637;28;20025;-84
2022/01/12 12:35:19;;;;;;;10.95;5.20;;;2.50;99.90;;;;;;5002183;28;20041;-84
2022/01/12 12:38:06;;;;;;;11.52;5.60;;;2.50;99.90;;;;;;5002269;28;20014;-83
2022/01/12 12:40:39;;;;;;;8.52;4.80;;;2.50;99.90;;;;;;5030947;28;20049;-83
2022/01/12 12:43:07;;;;;;;9.60;5.47;;;2.50;99.90;;;;;;5013216;28;20029;-82
2022/01/12 12:45:44;;;;;;;11.70;4.82;;;2.60;99.90;;;;;;5013303;28;20029;-82
2022/01/12 12:48:13;;;;;;;8.77;4.70;;;2.60;99.90;;;;;;4996483;28;20029;-82
2022/01/12 12:50:42;;;;;;;10.02;5.20;;;2.60;99.90;;;;;;5012921;28;20826;-83
2022/01/12 12:53:08;;;;;;;11.75;4.70;;;2.60;99.90;;;;;;4996833;28;20084;-83
2022/01/12 12:55:36;;;;;;;9.73;4.53;;;2.60;99.90;;;;;;5012314;28;20038;-83
2022/01/12 12:58:03;;;;;;;10.00;4.82;;;2.70;99.90;;;;;;5012258;28;20068;-83
2022/01/12 13:00:29;;;;;;;10.63;5.03;;;2.70;99.90;;;;;;4995879;28;20038;-83
2022/01/12 13:02:57;;;;;;;10.85;4.85;;;2.70;99.90;;;;;;4995702;28;20658;-84
2022/01/12 13:05:42;;;;;;;9.73;5.10;;;2.70;99.90;;;;;;4995639;28;20034;-83
2022/01/12 13:08:09;;;;;;;10.73;4.78;;;2.70;99.90;;;;;;5012306;28;20369;-84
2022/01/12 13:10:35;;;;;;;10.38;5.65;;;2.70;99.90;;;;;;4996142;28;20124;-85
2022/01/12 13:13:08;;;;;;;10.85;4.95;;;2.80;99.90;;;;;;4995946;28;20511;-83
2022/01/12 13:15:42;;;;;;;9.73;4.32;;;2.80;99.90;;;;;;4995781;28;20045;-84
2022/01/12 13:18:17;;;;;;;5.63;3.65;;;2.80;99.90;;;;;;4994769;28;20034;-83
2022/01/12 13:23:36;;;;;;;9.48;5.22;;;2.80;99.90;;;;;;5012638;28;20040;-83
2022/01/12 13:26:05;;;;;;;9.82;4.78;;;2.80;99.90;;;;;;4995953;28;20029;-83
2022/01/12 13:28:33;;;;;;;11.80;5.68;;;2.80;99.90;;;;;;4996022;28;20153;-84
2022/01/12 13:31:03;;;;;;;9.38;4.75;;;2.80;99.90;;;;;;5011916;28;20126;-83
2022/01/12 13:33:33;;;;;;;8.68;4.50;;;2.80;99.90;;;;;;5012235;28;20433;-83
2022/01/12 13:36:13;;;;;;;11.02;5.60;;;2.90;99.90;;;;;;4995604;28;20042;-83
2022/01/12 13:38:43;;;;;;;9.70;4.88;;;2.90;99.90;;;;;;5011352;28;20042;-83
2022/01/12 13:41:15;;;;;;;9.60;4.43;;;2.90;99.90;;;;;;4995423;28;20398;-83
2022/01/12 13:43:47;;;;;;;8.70;4.00;;;2.90;99.90;;;;;;4979602;28;20034;-82
2022/01/12 13:46:16;;;;;;;10.20;5.10;;;2.90;99.90;;;;;;4995805;28;20022;-83
2022/01/12 13:49:07;;;;;;;10.15;4.90;;;2.90;99.90;;;;;;5011490;28;20041;-83
2022/01/12 13:51:37;;;;;;;8.88;4.82;;;2.90;99.90;;;;;;5006352;28;20422;-84
2022/01/12 13:54:14;;;;;;;9.93;4.88;;;2.90;99.90;;;;;;5011321;28;20022;-83
2022/01/12 13:56:41;;;;;;;10.45;4.88;;;2.90;99.90;;;;;;5011223;28;20393;-84
2022/01/12 13:59:07;;;;;;;9.20;4.30;;;2.90;99.90;;;;;;5010718;28;20120;-83
2022/01/12 14:01:35;;;;;;;9.88;4.65;;;2.90;99.90;;;;;;5011510;28;20029;-83
2022/01/12 14:04:37;;;;;;;7.70;4.30;;;2.90;99.90;;;;;;4994620;28;20041;-83
2022/01/12 14:06:54;;;;;;;9.52;4.78;;;2.90;99.90;;;;;;5009293;28;20038;-84
2022/01/12 14:09:37;;;;;;;10.25;4.50;;;2.80;99.90;;;;;;4995894;28;20029;-84
2022/01/12 14:12:13;;;;;;;9.80;5.22;;;2.80;99.90;;;;;;4996405;28;20026;-83
2022/01/12 14:14:57;;;;;;;8.82;4.35;;;2.80;99.90;;;;;;4994372;28;20519;-84
2022/01/12 14:17:43;;;;;;;10.05;4.93;;;2.70;99.90;;;;;;5010994;28;20084;-83
2022/01/12 14:20:21;;;;;;;8.80;3.90;;;2.70;99.90;;;;;;5010412;28;20030;-82
2022/01/12 14:22:50;;;;;;;10.10;5.15;;;2.70;99.90;;;;;;4992071;28;20072;-84
2022/01/12 14:25:46;;;;;;;7.95;4.30;;;2.70;99.90;;;;;;5009782;28;20121;-84
2022/01/12 14:28:32;;;;;;;9.10;4.32;;;2.80;99.90;;;;;;5010520;28;20131;-83
2022/01/12 14:30:58;;;;;;;8.45;4.90;;;2.70;99.90;;;;;;4981418;28;20037;-83
2022/01/12 14:33:27;;;;;;;10.40;5.20;;;2.70;99.90;;;;;;5011437;28;20030;-83
2022/01/12 14:35:54;;;;;;;8.73;4.25;;;2.70;99.90;;;;;;4995459;28;20040;-82
2022/01/12 14:38:19;;;;;;;10.25;4.43;;;2.70;99.90;;;;;;4995749;28;20045;-83
2022/01/12 14:40:48;;;;;;;8.38;4.40;;;2.70;99.90;;;;;;4995744;28;20095;-83
2022/01/12 14:43:14;;;;;;;11.52;4.60;;;2.70;99.90;;;;;;5011445;28;20030;-83
2022/01/12 14:45:42;;;;;;;10.65;4.85;;;2.60;99.90;;;;;;4979404;28;20037;-83
2022/01/12 14:48:14;;;;;;;10.50;4.50;;;2.60;99.90;;;;;;4979359;28;20052;-84
2022/01/12 14:50:40;;;;;;;7.70;4.28;;;2.50;99.90;;;;;;4994908;28;20026;-84
2022/01/12 14:53:08;;;;;;;7.72;4.47;;;2.40;99.90;;;;;;4994890;28;20124;-82
2022/01/12 14:55:34;;;;;;;10.05;4.63;;;2.40;99.90;;;;;;4995645;28;20577;-83
2022/01/12 14:58:00;;;;;;;10.43;4.82;;;2.30;99.90;;;;;;5012115;28;20026;-84
2022/01/12 15:00:28;;;;;;;15.45;5.63;;;2.30;99.90;;;;;;5014224;28;20520;-83
2022/01/12 15:03:09;;;;;;;10.57;4.63;;;2.20;99.90;;;;;;4999011;28;20057;-84
2022/01/12 15:05:35;;;;;;;;;;;2.30;99.90;;;;;;5011115;28;20380;-84
2022/01/12 15:08:03;;;;;;;8.98;4.30;;;2.20;99.90;;;;;;5011278;28;19929;-84
2022/01/12 15:10:29;;;;;;;10.90;5.07;;;2.20;99.90;;;;;;4979173;28;20550;-84
2022/01/12 15:13:16;;;;;;;12.77;5.10;;;2.20;99.90;;;;;;5010469;28;20503;-83
2022/01/12 15:15:43;;;;;;;8.27;4.53;;;2.10;99.90;;;;;;5011191;28;20599;-84
2022/01/12 15:18:10;;;;;;;8.93;4.35;;;2.00;99.90;;;;;;5012615;28;20026;-84
2022/01/12 15:20:36;;;;;;;9.00;4.60;;;2.00;99.90;;;;;;4980920;28;20037;-85
2022/01/12 15:23:02;;;;;;;9.55;4.93;;;1.90;99.90;;;;;;4996650;28;20037;-84
2022/01/12 15:25:28;;;;;;;12.80;5.03;;;1.90;99.90;;;;;;5012483;28;20499;-84
2022/01/12 15:27:54;;;;;;;9.27;4.35;;;1.80;99.90;;;;;;4996933;28;20030;-85
2022/01/12 15:30:21;;;;;;;10.45;4.65;;;1.80;99.90;;;;;;4996810;28;20030;-84
2022/01/12 15:32:48;;;;;;;10.88;5.05;;;1.70;99.90;;;;;;4996258;28;20041;-84
2022/01/12 15:35:19;;;;;;;11.43;4.93;;;1.60;99.90;;;;;;5013283;28;20103;-84
2022/01/12 15:37:45;;;;;;;11.27;4.80;;;1.60;99.90;;;;;;4982338;28;20044;-84
2022/01/12 15:40:12;;;;;;;11.85;4.72;;;1.50;99.90;;;;;;4997123;28;20060;-84
2022/01/12 15:42:43;;;;;;;11.00;4.85;;;1.50;99.90;;;;;;5014762;28;20026;-84
2022/01/12 15:45:09;;;;;;;9.77;5.28;;;1.40;99.90;;;;;;5013992;28;20052;-84
2022/01/12 15:47:36;;;;;;;11.35;5.07;;;1.40;99.90;;;;;;4994323;28;20026;-85